createdAt,value
2018-09-13T00:01:49.793Z,56.79
2018-09-13T00:04:19.130Z,54.94
2018-09-13T00:06:49.159Z,55.64
2018-09-13T00:09:18.826Z,56.30
2018-09-13T00:11:48.307Z,56.82
2018-09-13T00:14:17.782Z,56.33
2018-09-13T00:16:47.574Z,55.39
2018-09-13T00:19:17.557Z,55.81
2018-09-13T00:21:47.543Z,56.48
2018-09-13T00:24:17.142Z,56.41
2018-09-13T00:26:46.901Z,57.55
2018-09-13T00:29:16.768Z,57.53
2018-09-13T00:31:46.681Z,57.40
2018-09-13T00:34:16.330Z,58.04
2018-09-13T00:36:45.909Z,57.45
2018-09-13T00:39:15.647Z,57.90
2018-09-13T00:41:45.357Z,58.20
2018-09-13T00:44:15.262Z,58.39
2018-09-13T00:46:44.678Z,58.08
2018-09-13T00:49:14.176Z,57.55
2018-09-13T00:51:44.107Z,57.64
2018-09-13T00:54:13.562Z,57.84
2018-09-13T00:56:43.109Z,57.81
2018-09-13T00:59:13.016Z,57.61
2018-09-13T01:01:42.821Z,57.72
2018-09-13T01:04:12.726Z,58.53
2018-09-13T01:06:42.545Z,59.45
2018-09-13T01:09:11.990Z,58.91
2018-09-13T01:11:41.835Z,58.18
2018-09-13T01:14:11.919Z,59.25
2018-09-13T01:16:41.645Z,59.04
2018-09-13T01:19:11.238Z,59.64
2018-09-13T01:21:41.209Z,60.00
2018-09-13T01:24:10.919Z,59.96
2018-09-13T01:26:40.504Z,60.43
2018-09-13T01:29:10.383Z,60.03
2018-09-13T01:31:40.009Z,60.55
2018-09-13T01:34:09.978Z,60.80
2018-09-13T01:36:39.881Z,61.00
2018-09-13T01:39:10.566Z,60.65
2018-09-13T01:41:40.833Z,60.62
2018-09-13T01:44:10.360Z,60.62
2018-09-13T01:46:40.186Z,60.71
2018-09-13T01:49:10.204Z,60.16
2018-09-13T01:51:39.919Z,60.59
2018-09-13T01:54:09.583Z,60.82
2018-09-13T01:56:39.335Z,60.62
2018-09-13T01:59:08.935Z,61.00
2018-09-13T02:01:38.574Z,60.62
2018-09-13T02:04:08.399Z,60.64
2018-09-13T02:06:38.157Z,60.40
2018-09-13T02:09:10.165Z,59.99
2018-09-13T02:11:39.665Z,59.18
2018-09-13T02:14:09.359Z,59.65
2018-09-13T02:16:39.311Z,59.57
2018-09-13T02:19:09.175Z,59.59
2018-09-13T02:21:38.685Z,60.64
2018-09-13T02:24:08.782Z,60.54
2018-09-13T02:26:38.595Z,60.88
2018-09-13T02:29:08.455Z,60.37
2018-09-13T02:31:38.138Z,60.33
2018-09-13T02:34:07.878Z,60.48
2018-09-13T02:36:37.374Z,59.72
2018-09-13T02:39:09.310Z,60.01
2018-09-13T02:41:39.303Z,60.11
2018-09-13T02:44:10.414Z,60.51
2018-09-13T02:46:40.232Z,60.51
2018-09-13T02:49:10.960Z,59.73
2018-09-13T02:51:40.643Z,59.66
2018-09-13T02:54:10.256Z,60.66
2018-09-13T02:56:40.024Z,60.15
2018-09-13T02:59:09.857Z,60.09
2018-09-13T03:01:39.509Z,60.50
2018-09-13T03:04:09.841Z,60.85
2018-09-13T03:06:40.016Z,61.40
2018-09-13T03:09:11.913Z,61.29
2018-09-13T03:11:42.452Z,61.30
2018-09-13T03:14:12.060Z,61.64
2018-09-13T03:16:48.074Z,61.81
2018-09-13T03:19:18.118Z,61.57
2018-09-13T03:21:47.495Z,61.97
2018-09-13T03:24:17.389Z,62.17
2018-09-13T03:26:47.017Z,62.03
2018-09-13T03:29:16.933Z,61.88
2018-09-13T03:31:46.992Z,61.87
2018-09-13T03:34:16.560Z,61.88
2018-09-13T03:36:46.186Z,62.06
2018-09-13T03:39:16.207Z,61.59
2018-09-13T03:41:45.807Z,61.36
2018-09-13T03:44:15.643Z,61.29
2018-09-13T03:46:45.427Z,61.32
2018-09-13T03:49:14.955Z,61.55
2018-09-13T03:51:44.475Z,61.54
2018-09-13T03:54:14.236Z,61.83
2018-09-13T03:56:43.664Z,62.13
2018-09-13T03:59:13.298Z,61.82
2018-09-13T04:01:42.974Z,61.91
2018-09-13T04:04:12.662Z,61.70
2018-09-13T04:06:42.061Z,61.95
2018-09-13T04:09:12.743Z,61.59
2018-09-13T04:11:42.352Z,62.58
2018-09-13T04:14:11.931Z,63.04
2018-09-13T04:16:41.512Z,62.85
2018-09-13T04:19:11.086Z,63.20
2018-09-13T04:21:40.965Z,63.46
2018-09-13T04:24:10.877Z,63.34
2018-09-13T04:26:40.690Z,63.30
2018-09-13T04:29:10.499Z,63.14
2018-09-13T04:31:40.173Z,63.23
2018-09-13T04:34:09.768Z,62.90
2018-09-13T04:36:39.534Z,62.70
2018-09-13T04:39:09.896Z,62.86
2018-09-13T04:41:39.426Z,62.94
2018-09-13T04:44:09.206Z,63.06
2018-09-13T04:46:39.151Z,62.94
2018-09-13T04:49:08.648Z,62.80
2018-09-13T04:51:38.178Z,62.66
2018-09-13T04:54:08.181Z,62.61
2018-09-13T04:56:37.773Z,63.25
2018-09-13T04:59:07.752Z,62.74
2018-09-13T05:01:39.143Z,62.75
2018-09-13T05:04:09.015Z,63.07
2018-09-13T05:06:38.697Z,62.92
2018-09-13T05:09:11.414Z,62.59
2018-09-13T05:11:41.244Z,62.67
2018-09-13T05:14:11.051Z,62.27
2018-09-13T05:16:40.858Z,62.64
2018-09-13T05:19:10.426Z,62.03
2018-09-13T05:21:39.961Z,61.97
2018-09-13T05:24:09.717Z,62.01
2018-09-13T05:26:39.300Z,61.64
2018-09-13T05:29:09.014Z,60.47
2018-09-13T05:31:38.921Z,60.98
2018-09-13T05:34:08.473Z,61.02
2018-09-13T05:36:38.177Z,60.80
2018-09-13T05:39:11.906Z,61.37
2018-09-13T05:41:42.060Z,60.80
2018-09-13T05:44:11.904Z,60.97
2018-09-13T05:46:41.718Z,61.13
2018-09-13T05:49:11.621Z,61.70
2018-09-13T05:51:41.511Z,61.54
2018-09-13T05:54:10.970Z,61.29
2018-09-13T05:56:40.437Z,61.15
2018-09-13T05:59:10.028Z,60.28
2018-09-13T06:01:40.081Z,60.11
2018-09-13T06:04:09.626Z,59.92
2018-09-13T06:06:39.284Z,60.35
2018-09-13T06:09:09.766Z,59.62
2018-09-13T06:11:39.458Z,59.64
2018-09-13T06:14:08.787Z,58.98
2018-09-13T06:16:39.063Z,59.42
2018-09-13T06:19:08.887Z,59.39
2018-09-13T06:21:38.626Z,59.64
2018-09-13T06:24:08.382Z,58.97
2018-09-13T06:26:38.258Z,59.02
2018-09-13T06:29:08.103Z,58.63
2018-09-13T06:31:37.853Z,59.15
2018-09-13T06:34:07.596Z,58.76
2018-09-13T06:36:37.368Z,59.01
2018-09-13T06:39:09.524Z,57.88
2018-09-13T06:41:39.447Z,58.22
2018-09-13T06:44:10.098Z,58.33
2018-09-13T06:46:40.349Z,58.01
2018-09-13T06:49:10.173Z,58.41
2018-09-13T06:51:39.950Z,58.86
2018-09-13T06:54:09.652Z,59.25
2018-09-13T06:56:39.357Z,57.81
2018-09-13T06:59:08.997Z,57.72
2018-09-13T07:01:39.182Z,56.26
2018-09-13T07:04:08.665Z,57.54
2018-09-13T07:06:38.255Z,56.23
2018-09-13T07:09:11.877Z,56.50
2018-09-13T07:11:42.259Z,55.56
2018-09-13T07:14:12.165Z,56.75
2018-09-13T07:16:42.066Z,56.47
2018-09-13T07:19:11.960Z,54.98
2018-09-13T07:21:41.666Z,55.41
2018-09-13T07:24:12.948Z,55.59
2018-09-13T07:26:42.536Z,54.31
2018-09-13T07:29:12.038Z,54.95
2018-09-13T07:31:41.958Z,53.47
2018-09-13T07:34:11.453Z,53.28
2018-09-13T07:36:41.015Z,53.27
2018-09-13T07:39:12.934Z,53.55
2018-09-13T07:41:42.674Z,53.47
2018-09-13T07:44:12.538Z,51.56
2018-09-13T07:46:42.877Z,52.22
2018-09-13T07:49:12.617Z,52.46
2018-09-13T07:51:42.393Z,52.43
2018-09-13T07:54:12.157Z,51.66
2018-09-13T07:56:41.593Z,51.79
2018-09-13T07:59:11.311Z,51.44
2018-09-13T08:01:41.353Z,52.57
2018-09-13T08:04:10.963Z,52.78
2018-09-13T08:06:40.456Z,51.92
2018-09-13T08:09:12.538Z,52.31
2018-09-13T08:11:42.547Z,52.34
2018-09-13T08:14:12.155Z,51.36
2018-09-13T08:16:42.024Z,50.31
2018-09-13T08:19:11.455Z,49.50
2018-09-13T08:21:41.414Z,49.16
2018-09-13T08:24:11.335Z,48.66
2018-09-13T08:26:40.959Z,48.77
2018-09-13T08:29:10.721Z,49.50
2018-09-13T08:31:40.583Z,49.23
2018-09-13T08:34:13.285Z,49.31
2018-09-13T08:36:44.442Z,49.19
2018-09-13T08:40:18.547Z,48.99
2018-09-13T08:42:48.615Z,48.51
2018-09-13T08:45:18.403Z,47.97
2018-09-13T08:47:47.856Z,47.01
2018-09-13T08:50:18.086Z,47.25
2018-09-13T08:52:48.058Z,47.23
2018-09-13T08:55:17.996Z,47.53
2018-09-13T08:57:48.309Z,47.43
2018-09-13T09:00:17.907Z,48.03
2018-09-13T09:02:47.926Z,47.82
2018-09-13T09:05:18.242Z,46.52
2018-09-13T09:07:48.119Z,46.06
2018-09-13T09:10:17.964Z,46.96
2018-09-13T09:12:48.047Z,47.25
2018-09-13T09:15:18.132Z,47.49
2018-09-13T09:17:47.933Z,48.36
2018-09-13T09:20:18.009Z,47.87
2018-09-13T09:22:47.758Z,47.50
2018-09-13T09:25:17.633Z,47.99
2018-09-13T09:27:47.672Z,48.19
2018-09-13T09:30:17.613Z,47.50
2018-09-13T09:32:47.395Z,48.46
2018-09-13T09:35:17.391Z,48.38
2018-09-13T09:37:47.446Z,48.43
2018-09-13T09:40:17.226Z,48.62
2018-09-13T09:42:47.118Z,48.89
2018-09-13T09:45:16.890Z,48.79
2018-09-13T09:47:46.397Z,48.38
2018-09-13T09:50:16.264Z,47.29
2018-09-13T09:52:45.707Z,46.61
2018-09-13T09:55:19.550Z,45.86
2018-09-13T09:57:49.434Z,44.56
2018-09-13T10:00:23.267Z,42.72
2018-09-13T10:02:53.093Z,42.53
2018-09-13T10:05:24.014Z,41.20
2018-09-13T10:07:53.929Z,40.70
2018-09-13T10:10:23.829Z,41.77
2018-09-13T10:12:53.752Z,40.85
2018-09-13T10:15:28.386Z,40.61
2018-09-13T10:18:03.498Z,41.21
2018-09-13T10:20:38.234Z,41.71
2018-09-13T10:23:13.594Z,42.55
2018-09-13T10:25:48.374Z,42.77
2018-09-13T10:28:23.483Z,43.34
2018-09-13T10:30:58.622Z,43.71
2018-09-13T10:33:33.441Z,43.57
2018-09-13T10:36:08.208Z,43.24
2018-09-13T10:38:43.202Z,41.65
2018-09-13T10:41:18.261Z,41.75
2018-09-13T10:43:53.787Z,39.35
2018-09-13T10:46:25.726Z,38.69
2018-09-13T10:49:00.859Z,38.80
2018-09-13T10:51:35.545Z,38.58
2018-09-13T10:54:10.475Z,37.65
2018-09-13T10:56:41.083Z,37.74
2018-09-13T10:59:10.854Z,39.04
2018-09-13T11:01:42.284Z,39.65
2018-09-13T11:04:12.079Z,39.71
2018-09-13T11:06:41.926Z,39.68
2018-09-13T11:09:14.632Z,40.63
2018-09-13T11:11:44.717Z,40.31
2018-09-13T11:14:22.236Z,39.64
2018-09-13T11:16:52.065Z,39.16
2018-09-13T11:19:21.945Z,38.71
2018-09-13T11:21:52.351Z,36.48
2018-09-13T11:24:22.426Z,36.50
2018-09-13T11:26:52.298Z,35.05
2018-09-13T11:29:22.569Z,34.07
2018-09-13T11:31:52.369Z,34.47
2018-09-13T11:34:22.268Z,34.83
2018-09-13T11:36:53.127Z,35.54
2018-09-13T11:39:23.042Z,37.11
2018-09-13T11:41:52.971Z,37.09
2018-09-13T11:44:23.206Z,36.65
2018-09-13T11:46:53.079Z,37.82
2018-09-13T11:49:22.967Z,37.61
2018-09-13T11:51:53.247Z,36.89
2018-09-13T11:54:23.061Z,36.01
2018-09-13T11:56:52.818Z,35.07
2018-09-13T11:59:22.911Z,34.26
2018-09-13T12:01:52.741Z,35.68
2018-09-13T12:04:22.590Z,36.25
2018-09-13T12:06:52.407Z,36.70
2018-09-13T12:09:22.419Z,36.65
2018-09-13T12:11:52.261Z,36.39
2018-09-13T12:14:22.072Z,37.30
2018-09-13T12:16:51.979Z,37.65
2018-09-13T12:19:22.086Z,37.82
2018-09-13T12:21:51.627Z,38.01
2018-09-13T12:24:21.520Z,38.85
2018-09-13T12:26:51.340Z,38.60
2018-09-13T12:29:21.051Z,39.56
2018-09-13T12:31:50.599Z,40.15
2018-09-13T12:34:20.295Z,39.51
2018-09-13T12:36:49.996Z,39.28
2018-09-13T12:39:19.682Z,38.88
2018-09-13T12:41:49.783Z,39.48
2018-09-13T12:44:19.621Z,39.52
2018-09-13T12:46:49.381Z,39.41
2018-09-13T12:49:20.062Z,40.50
2018-09-13T12:51:49.819Z,39.79
2018-09-13T12:54:19.466Z,39.25
2018-09-13T12:56:49.750Z,37.05
2018-09-13T12:59:19.600Z,36.48
2018-09-13T13:01:49.417Z,35.98
2018-09-13T13:04:19.678Z,34.78
2018-09-13T13:06:49.670Z,34.09
2018-09-13T13:09:19.393Z,34.89
2018-09-13T13:11:49.495Z,33.18
2018-09-13T13:14:19.215Z,33.63
2018-09-13T13:16:49.298Z,32.31
2018-09-13T13:19:19.021Z,31.19
2018-09-13T13:21:48.538Z,31.23
2018-09-13T13:24:18.083Z,31.24
2018-09-13T13:26:47.843Z,30.90
2018-09-13T13:29:17.573Z,30.98
2018-09-13T13:31:46.991Z,32.18
2018-09-13T13:34:16.964Z,31.83
2018-09-13T13:36:46.398Z,31.96
2018-09-13T13:39:16.124Z,31.65
2018-09-13T13:41:46.026Z,32.59
2018-09-13T13:44:15.409Z,32.43
2018-09-13T13:46:45.269Z,33.63
2018-09-13T13:49:14.696Z,32.90
2018-09-13T13:51:44.335Z,31.76
2018-09-13T13:54:13.975Z,30.06
2018-09-13T13:56:43.999Z,30.49
2018-09-13T13:59:13.701Z,31.45
2018-09-13T14:01:43.297Z,32.06
2018-09-13T14:04:13.469Z,33.10
2018-09-13T14:06:43.128Z,34.40
2018-09-13T14:09:13.599Z,34.85
2018-09-13T14:11:43.466Z,35.91
2018-09-13T14:14:12.993Z,36.53
2018-09-13T14:16:42.403Z,36.67
2018-09-13T14:19:12.439Z,36.69
2018-09-13T14:21:41.901Z,37.56
2018-09-13T14:24:11.436Z,38.12
2018-09-13T14:26:41.357Z,37.81
2018-09-13T14:29:10.841Z,37.54
2018-09-13T14:31:40.343Z,38.80
2018-09-13T14:34:10.234Z,38.75
2018-09-13T14:36:39.767Z,39.68
2018-09-13T14:39:11.199Z,40.29
2018-09-13T14:41:41.090Z,40.07
2018-09-13T14:44:10.636Z,40.63
2018-09-13T14:46:40.472Z,39.56
2018-09-13T14:49:10.180Z,38.71
2018-09-13T14:51:39.814Z,39.07
2018-09-13T14:54:09.722Z,38.99
2018-09-13T14:56:39.167Z,37.80
2018-09-13T14:59:08.832Z,36.16
2018-09-13T15:01:38.767Z,36.35
2018-09-13T15:04:09.719Z,35.74
2018-09-13T15:06:39.804Z,34.95
2018-09-13T15:09:12.116Z,34.46
2018-09-13T15:11:47.942Z,34.13
2018-09-13T15:14:17.629Z,34.49
2018-09-13T15:16:47.301Z,34.32
2018-09-13T15:19:16.808Z,34.71
2018-09-13T15:21:46.433Z,35.01
2018-09-13T15:24:15.807Z,35.20
2018-09-13T15:26:45.896Z,35.41
2018-09-13T15:29:15.573Z,35.95
2018-09-13T15:31:45.089Z,37.38
2018-09-13T15:34:15.031Z,37.40
2018-09-13T15:36:44.464Z,37.62
2018-09-13T15:39:14.152Z,38.15
2018-09-13T15:41:44.737Z,38.82
2018-09-13T15:44:14.257Z,38.42
2018-09-13T15:46:43.889Z,39.50
2018-09-13T15:49:14.115Z,39.40
2018-09-13T15:51:43.684Z,39.44
2018-09-13T15:54:13.139Z,39.88
2018-09-13T15:56:42.877Z,39.11
2018-09-13T15:59:12.557Z,40.07
2018-09-13T16:01:42.132Z,39.79
2018-09-13T16:04:11.762Z,40.13
2018-09-13T16:06:41.320Z,40.41
2018-09-13T16:09:11.280Z,40.69
2018-09-13T16:11:41.540Z,40.46
2018-09-13T16:14:10.948Z,41.42
2018-09-13T16:16:40.949Z,41.62
2018-09-13T16:19:10.623Z,42.14
2018-09-13T16:21:40.352Z,42.74
2018-09-13T16:24:10.265Z,42.75
2018-09-13T16:26:40.231Z,43.61
2018-09-13T16:29:09.851Z,43.54
2018-09-13T16:31:39.670Z,43.67
2018-09-13T16:34:09.838Z,44.27
2018-09-13T16:36:45.147Z,44.68
2018-09-13T16:39:27.346Z,44.99
2018-09-13T16:42:02.103Z,44.88
2018-09-13T16:44:52.002Z,44.90
2018-09-13T16:47:34.265Z,45.43
2018-09-13T16:50:04.563Z,45.60
2018-09-13T16:52:34.398Z,46.21
2018-09-13T16:55:03.652Z,45.83
2018-09-13T16:57:33.181Z,46.44
2018-09-13T17:00:03.034Z,46.49
2018-09-13T17:02:32.560Z,46.69
2018-09-13T17:05:02.395Z,46.41
2018-09-13T17:07:34.965Z,46.45
2018-09-13T17:10:05.092Z,46.86
2018-09-13T17:12:34.506Z,46.86
2018-09-13T17:15:04.269Z,47.12
2018-09-13T17:17:34.292Z,47.19
2018-09-13T17:20:04.495Z,48.23
2018-09-13T17:22:33.920Z,47.94
2018-09-13T17:25:04.093Z,48.11
2018-09-13T17:27:33.483Z,47.54
2018-09-13T17:30:03.259Z,48.15
2018-09-13T17:32:34.131Z,48.12
2018-09-13T17:35:03.813Z,48.06
2018-09-13T17:37:33.291Z,48.31
2018-09-13T17:40:02.978Z,48.20
2018-09-13T17:42:32.360Z,48.22
2018-09-13T17:45:01.710Z,47.99
2018-09-13T17:47:31.200Z,48.24
2018-09-13T17:50:00.866Z,48.69
2018-09-13T17:52:30.266Z,48.13
2018-09-13T17:55:00.035Z,48.49
2018-09-13T17:57:29.701Z,48.59
2018-09-13T17:59:59.478Z,48.50
2018-09-13T18:02:29.184Z,50.00
2018-09-13T18:05:00.707Z,50.12
2018-09-13T18:07:30.260Z,50.10
2018-09-13T18:09:59.978Z,49.61
2018-09-13T18:12:29.379Z,49.66
2018-09-13T18:14:59.166Z,50.00
2018-09-13T18:17:28.706Z,50.41
2018-09-13T18:19:58.050Z,50.33
2018-09-13T18:22:27.520Z,50.59
2018-09-13T18:24:57.201Z,51.46
2018-09-13T18:27:26.595Z,51.43
2018-09-13T18:29:56.225Z,51.90
2018-09-13T18:32:25.917Z,51.71
2018-09-13T18:34:55.834Z,51.90
2018-09-13T18:37:25.791Z,51.51
2018-09-13T18:39:55.380Z,51.87
2018-09-13T18:42:25.498Z,51.62
2018-09-13T18:44:55.523Z,52.04
2018-09-13T18:47:25.142Z,51.84
2018-09-13T18:49:55.115Z,51.84
2018-09-13T18:52:26.282Z,51.83
2018-09-13T18:54:56.730Z,51.93
2018-09-13T18:57:26.237Z,52.25
2018-09-13T18:59:56.039Z,51.91
2018-09-13T19:02:25.773Z,52.14
2018-09-13T19:04:55.435Z,52.63
2018-09-13T19:07:25.282Z,52.27
2018-09-13T19:09:54.564Z,52.83
2018-09-13T19:12:24.377Z,52.74
2018-09-13T19:14:54.314Z,53.90
2018-09-13T19:17:24.140Z,55.04
2018-09-13T19:19:53.917Z,55.93
2018-09-13T19:22:24.052Z,56.06
2018-09-13T19:24:53.623Z,55.61
2018-09-13T19:27:23.214Z,55.01
2018-09-13T19:29:52.994Z,55.19
2018-09-13T19:32:22.318Z,55.54
2018-09-13T19:34:52.071Z,55.31
2018-09-13T19:37:21.939Z,55.66
2018-09-13T19:39:51.405Z,55.58
2018-09-13T19:42:21.096Z,55.41
2018-09-13T19:44:51.140Z,54.93
2018-09-13T19:47:20.761Z,55.03
2018-09-13T19:49:50.402Z,55.29
2018-09-13T19:52:20.380Z,55.72
2018-09-13T19:54:49.901Z,55.68
2018-09-13T19:57:19.594Z,55.95
2018-09-13T19:59:49.405Z,55.29
2018-09-13T20:02:18.989Z,55.24
2018-09-13T20:04:48.618Z,55.64
2018-09-13T20:07:18.230Z,55.45
2018-09-13T20:09:47.922Z,55.15
2018-09-13T20:12:17.453Z,55.13
2018-09-13T20:14:47.134Z,56.09
2018-09-13T20:17:16.555Z,56.25
2018-09-13T20:19:45.927Z,56.07
2018-09-13T20:22:15.573Z,55.94
2018-09-13T20:24:45.215Z,55.92
2018-09-13T20:27:14.619Z,55.76
2018-09-13T20:29:44.832Z,56.19
2018-09-13T20:32:14.540Z,56.13
2018-09-13T20:34:44.114Z,55.93
2018-09-13T20:37:13.962Z,54.87
2018-09-13T20:39:43.483Z,55.24
2018-09-13T20:42:12.974Z,55.71
2018-09-13T20:44:42.877Z,56.11
2018-09-13T20:47:12.443Z,56.95
2018-09-13T20:49:41.941Z,57.44
2018-09-13T20:52:11.444Z,57.11
2018-09-13T20:54:40.873Z,56.84
2018-09-13T20:57:10.656Z,56.71
2018-09-13T20:59:41.032Z,56.94
2018-09-13T21:02:10.527Z,57.65
2018-09-13T21:04:40.227Z,57.76
2018-09-13T21:07:09.850Z,58.15
2018-09-13T21:09:39.109Z,58.73
2018-09-13T21:12:08.842Z,58.76
2018-09-13T21:14:38.567Z,58.69
2018-09-13T21:17:08.713Z,59.04
2018-09-13T21:37:01.036Z,59.02
2018-09-13T21:39:30.553Z,58.95
2018-09-13T21:59:23.403Z,59.23
2018-09-13T22:01:53.129Z,58.68
2018-09-13T22:04:22.990Z,58.87
2018-09-13T22:06:52.811Z,58.82
2018-09-13T22:09:22.459Z,59.18
2018-09-13T22:11:52.232Z,59.38
2018-09-13T22:31:44.184Z,60.19
2018-09-13T22:34:13.711Z,60.26
2018-09-13T22:36:43.256Z,59.58
2018-09-13T22:39:13.169Z,59.86
2018-09-13T22:41:42.870Z,60.12
2018-09-13T22:44:12.381Z,59.57
2018-09-13T22:46:42.006Z,59.57
2018-09-13T22:49:11.774Z,59.82
2018-09-13T22:51:42.106Z,59.52
2018-09-13T22:54:12.059Z,59.93
2018-09-13T22:56:41.373Z,60.04
2018-09-13T22:59:10.733Z,59.94
2018-09-13T23:01:40.718Z,60.21
2018-09-13T23:04:10.467Z,60.76
2018-09-13T23:06:40.287Z,61.23
2018-09-13T23:09:11.589Z,61.20
2018-09-13T23:11:41.254Z,61.13
2018-09-13T23:31:32.803Z,61.49
2018-09-13T23:51:42.117Z,61.19
2018-09-13T23:54:12.075Z,61.30
2018-09-13T23:56:41.723Z,61.23
2018-09-13T23:59:11.168Z,61.39
